Terminal Aerodrome Forecast
Issued by NWS New Orleans/Baton Rouge, LA

Home | Current Version | Previous Version | Text Only | Print | Product List | Glossary On
Versions: 1 2 3 4 5 6 7 8 9 10 11 12 13 14 15 16 17 18 19 20 21 22 23 24 25 26
562
FTUS44 KLIX 241126
TAFNEW
TAF
KNEW 241126Z 2412/2512 13005KT P6SM FEW250
     FM241700 12009KT P6SM FEW250
     FM250700 16005KT P6SM SCT250=

USA.gov is the U.S. government's official web portal to all federal, state and local government web resources and services.